sensor_id;sensor_type;location;lat;lon;timestamp;temperature;humidity
55313;DHT22;46892;45.668;11.756;2022-07-17T16:52:39;32.10;39.90
55313;DHT22;46892;45.668;11.756;2022-07-17T16:55:05;32.10;37.90
55313;DHT22;46892;45.668;11.756;2022-07-17T16:57:34;32.10;37.50
55313;DHT22;46892;45.668;11.756;2022-07-17T16:59:59;32.00;37.30
55313;DHT22;46892;45.668;11.756;2022-07-17T17:02:25;32.20;43.40
55313;DHT22;46892;45.668;11.756;2022-07-17T17:04:51;32.30;42.40
55313;DHT22;46892;45.668;11.756;2022-07-17T17:07:16;32.30;38.10
55313;DHT22;46892;45.668;11.756;2022-07-17T17:09:43;32.30;38.60
55313;DHT22;46892;45.668;11.756;2022-07-17T17:12:08;32.40;38.80
55313;DHT22;46892;45.668;11.756;2022-07-17T17:14:34;32.40;38.80
55313;DHT22;46892;45.668;11.756;2022-07-17T17:17:00;32.30;38.10
55313;DHT22;46892;45.668;11.756;2022-07-17T17:19:25;32.20;38.70
55313;DHT22;46892;45.668;11.756;2022-07-17T17:21:51;32.20;38.70
55313;DHT22;46892;45.668;11.756;2022-07-17T17:24:17;32.10;38.80
55313;DHT22;46892;45.668;11.756;2022-07-17T17:26:42;32.00;39.40
55313;DHT22;46892;45.668;11.756;2022-07-17T17:29:08;31.80;38.30
55313;DHT22;46892;45.668;11.756;2022-07-17T17:31:34;31.70;38.80
55313;DHT22;46892;45.668;11.756;2022-07-17T17:34:00;31.80;39.40
55313;DHT22;46892;45.668;11.756;2022-07-17T17:36:26;31.70;39.60
55313;DHT22;46892;45.668;11.756;2022-07-17T17:38:52;31.80;40.70
55313;DHT22;46892;45.668;11.756;2022-07-17T17:41:17;31.70;39.60
55313;DHT22;46892;45.668;11.756;2022-07-17T17:43:44;31.70;39.50
55313;DHT22;46892;45.668;11.756;2022-07-17T17:46:10;31.70;39.60
55313;DHT22;46892;45.668;11.756;2022-07-17T17:48:36;31.60;39.70
55313;DHT22;46892;45.668;11.756;2022-07-17T17:51:02;31.60;40.20
55313;DHT22;46892;45.668;11.756;2022-07-17T17:53:28;31.40;39.70
55313;DHT22;46892;45.668;11.756;2022-07-17T17:55:53;31.40;38.80
55313;DHT22;46892;45.668;11.756;2022-07-17T17:58:19;31.40;39.70
55313;DHT22;46892;45.668;11.756;2022-07-17T18:00:45;31.20;40.20
55313;DHT22;46892;45.668;11.756;2022-07-17T18:03:11;31.20;40.90
55313;DHT22;46892;45.668;11.756;2022-07-17T18:05:39;31.00;41.10
55313;DHT22;46892;45.668;11.756;2022-07-17T18:08:05;30.90;40.00
55313;DHT22;46892;45.668;11.756;2022-07-17T18:10:30;30.80;40.50
55313;DHT22;46892;45.668;11.756;2022-07-17T18:12:56;30.80;41.60
55313;DHT22;46892;45.668;11.756;2022-07-17T18:15:22;30.60;40.80
55313;DHT22;46892;45.668;11.756;2022-07-17T18:17:48;30.60;41.30
55313;DHT22;46892;45.668;11.756;2022-07-17T18:20:13;30.50;41.40
55313;DHT22;46892;45.668;11.756;2022-07-17T18:22:39;30.40;41.30
55313;DHT22;46892;45.668;11.756;2022-07-17T18:25:05;30.30;41.30
55313;DHT22;46892;45.668;11.756;2022-07-17T18:27:32;30.30;41.60
55313;DHT22;46892;45.668;11.756;2022-07-17T18:29:58;30.20;42.00
55313;DHT22;46892;45.668;11.756;2022-07-17T18:32:24;30.10;41.90
55313;DHT22;46892;45.668;11.756;2022-07-17T18:34:49;30.00;42.20
55313;DHT22;46892;45.668;11.756;2022-07-17T18:37:15;29.90;42.20
55313;DHT22;46892;45.668;11.756;2022-07-17T18:39:41;29.80;43.00
55313;DHT22;46892;45.668;11.756;2022-07-17T18:42:07;29.80;43.40
55313;DHT22;46892;45.668;11.756;2022-07-17T18:44:34;29.80;43.20
55313;DHT22;46892;45.668;11.756;2022-07-17T18:46:59;29.70;43.90
55313;DHT22;46892;45.668;11.756;2022-07-17T18:49:25;29.70;44.50
55313;DHT22;46892;45.668;11.756;2022-07-17T18:51:51;29.70;44.50
55313;DHT22;46892;45.668;11.756;2022-07-17T18:54:17;29.60;46.70
55313;DHT22;46892;45.668;11.756;2022-07-17T18:56:44;29.50;46.40
55313;DHT22;46892;45.668;11.756;2022-07-17T18:59:10;29.50;47.70
55313;DHT22;46892;45.668;11.756;2022-07-17T19:01:36;29.50;48.80
55313;DHT22;46892;45.668;11.756;2022-07-17T19:04:02;29.30;51.20
55313;DHT22;46892;45.668;11.756;2022-07-17T19:06:28;29.20;49.30
55313;DHT22;46892;45.668;11.756;2022-07-17T19:08:54;29.10;50.50
55313;DHT22;46892;45.668;11.756;2022-07-17T19:11:19;28.90;52.20
55313;DHT22;46892;45.668;11.756;2022-07-17T19:13:45;28.70;53.00
55313;DHT22;46892;45.668;11.756;2022-07-17T19:16:11;28.60;52.70
55313;DHT22;46892;45.668;11.756;2022-07-17T19:18:37;28.50;53.80
55313;DHT22;46892;45.668;11.756;2022-07-17T19:21:03;28.30;55.40
55313;DHT22;46892;45.668;11.756;2022-07-17T19:23:29;28.30;55.40
55313;DHT22;46892;45.668;11.756;2022-07-17T19:25:55;28.20;54.80
55313;DHT22;46892;45.668;11.756;2022-07-17T19:28:23;28.20;54.00
55313;DHT22;46892;45.668;11.756;2022-07-17T19:30:51;28.00;54.30
55313;DHT22;46892;45.668;11.756;2022-07-17T19:33:17;27.90;53.50
55313;DHT22;46892;45.668;11.756;2022-07-17T19:35:43;27.80;56.20
55313;DHT22;46892;45.668;11.756;2022-07-17T19:38:11;27.70;56.20
55313;DHT22;46892;45.668;11.756;2022-07-17T19:40:38;27.60;55.70
55313;DHT22;46892;45.668;11.756;2022-07-17T19:43:03;27.60;55.90
55313;DHT22;46892;45.668;11.756;2022-07-17T19:45:29;27.50;56.00
55313;DHT22;46892;45.668;11.756;2022-07-17T19:47:55;27.40;56.10
55313;DHT22;46892;45.668;11.756;2022-07-17T19:50:20;27.30;55.60
55313;DHT22;46892;45.668;11.756;2022-07-17T19:52:46;27.30;54.90
55313;DHT22;46892;45.668;11.756;2022-07-17T19:55:12;27.20;55.90
55313;DHT22;46892;45.668;11.756;2022-07-17T19:57:37;27.20;59.50
55313;DHT22;46892;45.668;11.756;2022-07-17T20:00:07;27.00;60.50
55313;DHT22;46892;45.668;11.756;2022-07-17T20:02:34;26.90;58.80
55313;DHT22;46892;45.668;11.756;2022-07-17T20:04:59;26.90;58.30
55313;DHT22;46892;45.668;11.756;2022-07-17T20:07:25;26.80;58.30
55313;DHT22;46892;45.668;11.756;2022-07-17T20:09:52;26.80;58.20
55313;DHT22;46892;45.668;11.756;2022-07-17T20:12:18;26.80;55.70
55313;DHT22;46892;45.668;11.756;2022-07-17T20:14:44;26.90;54.40
55313;DHT22;46892;45.668;11.756;2022-07-17T20:17:10;27.00;54.20
55313;DHT22;46892;45.668;11.756;2022-07-17T20:19:35;27.10;55.50
55313;DHT22;46892;45.668;11.756;2022-07-17T20:22:02;27.10;59.70
55313;DHT22;46892;45.668;11.756;2022-07-17T20:24:28;27.10;58.70
55313;DHT22;46892;45.668;11.756;2022-07-17T20:26:53;27.10;57.30
55313;DHT22;46892;45.668;11.756;2022-07-17T20:29:19;27.10;57.70
55313;DHT22;46892;45.668;11.756;2022-07-17T20:31:45;27.10;57.80
55313;DHT22;46892;45.668;11.756;2022-07-17T20:34:10;27.00;57.00
55313;DHT22;46892;45.668;11.756;2022-07-17T20:36:36;26.90;57.80
55313;DHT22;46892;45.668;11.756;2022-07-17T20:39:03;26.90;58.90
55313;DHT22;46892;45.668;11.756;2022-07-17T20:41:29;26.80;59.50
55313;DHT22;46892;45.668;11.756;2022-07-17T20:43:55;26.70;60.40
55313;DHT22;46892;45.668;11.756;2022-07-17T20:46:20;26.70;60.40
55313;DHT22;46892;45.668;11.756;2022-07-17T20:48:47;26.60;59.30
55313;DHT22;46892;45.668;11.756;2022-07-17T20:51:14;26.50;59.60
55313;DHT22;46892;45.668;11.756;2022-07-17T20:53:40;26.40;61.10
55313;DHT22;46892;45.668;11.756;2022-07-17T20:56:06;26.50;61.60
55313;DHT22;46892;45.668;11.756;2022-07-17T20:58:32;26.30;61.00
55313;DHT22;46892;45.668;11.756;2022-07-17T21:00:59;26.30;60.40
55313;DHT22;46892;45.668;11.756;2022-07-17T21:03:27;26.20;60.40
55313;DHT22;46892;45.668;11.756;2022-07-17T21:05:54;26.20;62.80
55313;DHT22;46892;45.668;11.756;2022-07-17T21:08:24;26.20;62.20
55313;DHT22;46892;45.668;11.756;2022-07-17T21:10:57;26.20;60.00
55313;DHT22;46892;45.668;11.756;2022-07-17T21:13:24;26.20;59.40
55313;DHT22;46892;45.668;11.756;2022-07-17T21:15:51;26.20;62.30
55313;DHT22;46892;45.668;11.756;2022-07-17T21:18:19;25.90;59.80
55313;DHT22;46892;45.668;11.756;2022-07-17T21:20:45;25.90;62.20
55313;DHT22;46892;45.668;11.756;2022-07-17T21:23:11;26.00;61.00
55313;DHT22;46892;45.668;11.756;2022-07-17T21:25:37;26.00;61.60
55313;DHT22;46892;45.668;11.756;2022-07-17T21:28:03;25.90;62.60
55313;DHT22;46892;45.668;11.756;2022-07-17T21:30:29;25.90;60.50
55313;DHT22;46892;45.668;11.756;2022-07-17T21:32:57;26.00;57.70
55313;DHT22;46892;45.668;11.756;2022-07-17T21:35:23;26.20;56.90
55313;DHT22;46892;45.668;11.756;2022-07-17T21:37:48;26.30;57.10
55313;DHT22;46892;45.668;11.756;2022-07-17T21:40:14;26.40;56.00
55313;DHT22;46892;45.668;11.756;2022-07-17T21:42:40;26.40;55.90
55313;DHT22;46892;45.668;11.756;2022-07-17T21:45:06;26.50;56.30
55313;DHT22;46892;45.668;11.756;2022-07-17T21:47:32;26.40;56.60
55313;DHT22;46892;45.668;11.756;2022-07-17T21:49:57;26.50;56.20
55313;DHT22;46892;45.668;11.756;2022-07-17T21:52:24;26.40;56.30
55313;DHT22;46892;45.668;11.756;2022-07-17T21:54:49;26.40;56.50
55313;DHT22;46892;45.668;11.756;2022-07-17T21:57:15;26.40;56.20
55313;DHT22;46892;45.668;11.756;2022-07-17T21:59:41;26.30;55.30
55313;DHT22;46892;45.668;11.756;2022-07-17T22:02:08;26.30;55.00
55313;DHT22;46892;45.668;11.756;2022-07-17T22:04:35;26.30;54.70
55313;DHT22;46892;45.668;11.756;2022-07-17T22:07:01;26.40;55.40
55313;DHT22;46892;45.668;11.756;2022-07-17T22:09:27;26.30;56.40
55313;DHT22;46892;45.668;11.756;2022-07-17T22:11:53;26.10;57.70
55313;DHT22;46892;45.668;11.756;2022-07-17T22:14:18;25.90;58.30
55313;DHT22;46892;45.668;11.756;2022-07-17T22:16:44;25.70;58.50
55313;DHT22;46892;45.668;11.756;2022-07-17T22:19:10;25.50;58.30
55313;DHT22;46892;45.668;11.756;2022-07-17T22:21:36;25.50;59.40
55313;DHT22;46892;45.668;11.756;2022-07-17T22:24:02;25.30;60.40
55313;DHT22;46892;45.668;11.756;2022-07-17T22:26:30;25.20;61.00
55313;DHT22;46892;45.668;11.756;2022-07-17T22:28:56;25.20;62.60
55313;DHT22;46892;45.668;11.756;2022-07-17T22:31:22;25.10;62.60
55313;DHT22;46892;45.668;11.756;2022-07-17T22:33:48;25.10;63.20
55313;DHT22;46892;45.668;11.756;2022-07-17T22:36:13;24.80;62.30
55313;DHT22;46892;45.668;11.756;2022-07-17T22:38:39;24.80;62.50
55313;DHT22;46892;45.668;11.756;2022-07-17T22:41:05;24.80;62.10
55313;DHT22;46892;45.668;11.756;2022-07-17T22:43:31;24.80;61.70
55313;DHT22;46892;45.668;11.756;2022-07-17T22:45:56;24.80;61.70
55313;DHT22;46892;45.668;11.756;2022-07-17T22:48:22;24.80;61.40
55313;DHT22;46892;45.668;11.756;2022-07-17T22:50:49;24.90;61.50
55313;DHT22;46892;45.668;11.756;2022-07-17T22:53:14;24.90;61.40
55313;DHT22;46892;45.668;11.756;2022-07-17T22:55:40;25.00;62.30
55313;DHT22;46892;45.668;11.756;2022-07-17T22:58:06;25.10;62.30
55313;DHT22;46892;45.668;11.756;2022-07-17T23:00:32;25.10;62.50
55313;DHT22;46892;45.668;11.756;2022-07-17T23:02:58;25.10;62.40
55313;DHT22;46892;45.668;11.756;2022-07-17T23:05:24;25.00;62.20
55313;DHT22;46892;45.668;11.756;2022-07-17T23:07:50;25.00;61.20
55313;DHT22;46892;45.668;11.756;2022-07-17T23:10:16;24.90;61.40
55313;DHT22;46892;45.668;11.756;2022-07-17T23:12:42;24.90;61.00
55313;DHT22;46892;45.668;11.756;2022-07-17T23:15:08;24.90;60.80
55313;DHT22;46892;45.668;11.756;2022-07-17T23:17:34;24.70;61.10
55313;DHT22;46892;45.668;11.756;2022-07-17T23:20:00;24.60;61.30
55313;DHT22;46892;45.668;11.756;2022-07-17T23:22:25;24.50;61.70
55313;DHT22;46892;45.668;11.756;2022-07-17T23:24:51;24.50;61.70
55313;DHT22;46892;45.668;11.756;2022-07-17T23:27:17;24.50;61.30
55313;DHT22;46892;45.668;11.756;2022-07-17T23:29:42;24.50;60.70
55313;DHT22;46892;45.668;11.756;2022-07-17T23:32:08;24.50;59.40
55313;DHT22;46892;45.668;11.756;2022-07-17T23:34:57;24.40;59.40
55313;DHT22;46892;45.668;11.756;2022-07-17T23:37:24;24.50;59.40
55313;DHT22;46892;45.668;11.756;2022-07-17T23:39:50;24.50;59.10
55313;DHT22;46892;45.668;11.756;2022-07-17T23:42:16;24.40;58.40
55313;DHT22;46892;45.668;11.756;2022-07-17T23:44:44;24.40;58.40
55313;DHT22;46892;45.668;11.756;2022-07-17T23:47:09;24.30;58.30
55313;DHT22;46892;45.668;11.756;2022-07-17T23:49:35;24.40;58.40
55313;DHT22;46892;45.668;11.756;2022-07-17T23:52:01;24.50;58.00
55313;DHT22;46892;45.668;11.756;2022-07-17T23:54:27;24.50;57.30
55313;DHT22;46892;45.668;11.756;2022-07-17T23:56:53;24.60;57.80
55313;DHT22;46892;45.668;11.756;2022-07-17T23:59:18;24.60;58.10
